SVMG/PMV METAR and TAF weather

Enter ICAO airport designator
Station Type Date Time Source
SVMG METAR 2020/12/06 01:02 UTC NOAA

SVMG 060102Z AUTO 09012KT NCD 27/25 Q1013


Station Type Date Time Source
SVMG Decoded METAR 2020/12/06 01:02 UTC NOAA

Margarita / Del Carib, Venezuela (SVMG) 10-55N 063-59W
Dec 05, 2020 - 08:02 PM EST / 2020.12.06 0102 UTC
Wind: from the E (090 degrees) at 14 MPH (12 KT):0
Temperature: 80 F (27 C)
Dew Point: 77 F (25 C)
Relative Humidity: 88%
Pressure (altimeter): 29.91 in. Hg (1013 hPa)
ob: SVMG 060102Z AUTO 09012KT NCD 27/25 Q1013
cycle: 1

Station Type Date Time Source
SVMG TAF 2020/12/05 12:14 UTC NOAA

TAF SVMG 050400Z 0512/0612 08005KT 9999 FEW016 SCT070 TX33/0518Z TN25/0509Z
BECMG 0512/0516 09011KT 9999 BKN070

Example: see airport list